Bearskin Lake, Canada
Current Conditions -  °F | °C
As of 2:27 PM on Thursday 29 Jan 2015 (Local Time) from CYTL Reporting Station
Light Snow Light Snow  
Wind Chill: -28°   Ceiling: Unl
Heat Index: -8°   Visibility: 9mi
Dew Point: -17°   Wind: 13mph
Humidity: 65%   Direction: 290°WNW
Pressure: 30.25"   Gusts: 20mph
Location:  53.93°N, 90.98°W
Report Text: CYTL 292027Z AUTO 29011G17KT 9SM -SN CLR M22/M27 A3025 RMK SLP275
Loading
Personal Weather Stations






























Interactive Weather Map New forecast layout! Learn more

10-Day Weather Forecast

Advertisements
Track Severe Weather on mobile